createdAt,value
2022-07-28T00:01:04.866Z,10.93
2022-07-28T00:03:31.981Z,8.83
2022-07-28T00:05:59.172Z,11.17
2022-07-28T00:08:26.354Z,7.90
2022-07-28T00:10:53.571Z,8.13
2022-07-28T00:13:20.787Z,11.60
2022-07-28T00:15:47.929Z,9.60
2022-07-28T00:18:15.121Z,10.47
2022-07-28T00:20:42.271Z,11.57
2022-07-28T00:23:09.423Z,10.03
2022-07-28T00:25:36.571Z,11.17
2022-07-28T00:28:03.714Z,10.57
2022-07-28T00:30:31.001Z,9.33
2022-07-28T00:32:58.284Z,9.53
2022-07-28T00:35:30.159Z,10.00
2022-07-28T00:37:58.344Z,9.63
2022-07-28T00:40:45.457Z,10.40
2022-07-28T00:43:12.657Z,8.87
2022-07-28T00:45:39.892Z,10.87
2022-07-28T00:48:07.254Z,9.47
2022-07-28T00:50:34.490Z,11.70
2022-07-28T00:53:01.666Z,9.17
2022-07-28T00:55:28.894Z,11.33
2022-07-28T00:57:56.054Z,9.53
2022-07-28T01:00:23.274Z,11.90
2022-07-28T01:02:50.694Z,10.70
2022-07-28T01:05:19.086Z,10.33
2022-07-28T01:08:08.705Z,10.80
2022-07-28T01:10:44.361Z,13.80
2022-07-28T01:13:14.127Z,11.73
2022-07-28T01:15:56.375Z,12.57
2022-07-28T01:18:27.528Z,10.40
2022-07-28T01:20:55.964Z,12.17
2022-07-28T01:23:32.419Z,13.60
2022-07-28T01:26:11.076Z,11.07
2022-07-28T01:28:44.371Z,10.33
2022-07-28T01:31:13.755Z,11.13
2022-07-28T01:33:47.300Z,11.30
2022-07-28T01:36:16.740Z,11.23
2022-07-28T01:38:44.718Z,12.60
2022-07-28T01:41:13.435Z,8.93
2022-07-28T01:43:42.533Z,9.27
2022-07-28T01:46:09.919Z,11.60
2022-07-28T01:48:40.218Z,12.17
2022-07-28T01:51:08.237Z,9.90
2022-07-28T01:53:38.308Z,8.70
2022-07-28T01:56:06.345Z,10.23
2022-07-28T01:58:33.999Z,12.40
2022-07-28T02:01:01.729Z,8.57
2022-07-28T02:03:29.827Z,9.60
2022-07-28T02:05:57.707Z,10.43
2022-07-28T02:08:25.452Z,12.23
2022-07-28T02:11:12.771Z,9.03
2022-07-28T02:13:40.165Z,9.27
2022-07-28T02:16:10.567Z,8.90
2022-07-28T02:18:38.911Z,10.83
2022-07-28T02:21:07.683Z,9.20
2022-07-28T02:23:35.805Z,10.10
2022-07-28T02:26:05.092Z,11.20
2022-07-28T02:28:32.477Z,11.13
2022-07-28T02:31:02.317Z,10.63
2022-07-28T02:34:00.178Z,10.67
2022-07-28T02:36:21.104Z,8.40
2022-07-28T02:38:51.594Z,13.07
2022-07-28T02:41:22.652Z,12.03
2022-07-28T02:43:51.472Z,9.63
2022-07-28T02:46:24.593Z,12.40
2022-07-28T02:48:55.384Z,12.57
2022-07-28T02:51:24.259Z,10.27
2022-07-28T02:53:51.856Z,10.83
2022-07-28T02:56:19.091Z,11.60
2022-07-28T02:58:46.410Z,13.33
2022-07-28T03:01:14.022Z,11.10
2022-07-28T03:03:44.123Z,12.67
2022-07-28T03:06:11.475Z,10.57
2022-07-28T03:08:38.694Z,10.57
2022-07-28T03:11:12.499Z,12.17
2022-07-28T03:13:40.614Z,8.97
2022-07-28T03:16:08.552Z,10.67
2022-07-28T03:18:35.686Z,9.57
2022-07-28T03:21:02.887Z,9.77
2022-07-28T03:23:35.180Z,8.90
2022-07-28T03:26:05.831Z,9.37
2022-07-28T03:28:33.757Z,9.20
2022-07-28T03:31:08.552Z,7.10
2022-07-28T03:33:35.919Z,10.30
2022-07-28T03:36:12.912Z,10.03
2022-07-28T03:38:43.789Z,8.63
2022-07-28T03:41:11.678Z,10.10
2022-07-28T03:43:38.973Z,8.43
2022-07-28T03:46:13.010Z,12.03
2022-07-28T03:48:40.617Z,10.53
2022-07-28T03:51:07.881Z,9.73
2022-07-28T03:53:35.072Z,9.73
2022-07-28T03:56:03.364Z,9.57
2022-07-28T03:58:31.237Z,11.77
2022-07-28T04:00:58.994Z,9.13
2022-07-28T04:03:36.783Z,11.77
2022-07-28T04:06:12.167Z,11.13
2022-07-28T04:08:39.305Z,10.53
2022-07-28T04:11:06.978Z,11.97
2022-07-28T04:13:36.611Z,12.53
2022-07-28T04:16:03.945Z,10.80
2022-07-28T04:18:31.075Z,9.97
2022-07-28T04:20:58.311Z,10.33
2022-07-28T04:23:25.908Z,11.80
2022-07-28T04:25:53.038Z,11.87
2022-07-28T04:28:20.255Z,9.37
2022-07-28T04:30:47.511Z,12.03
2022-07-28T04:33:14.713Z,12.23
2022-07-28T04:35:41.851Z,11.63
2022-07-28T04:38:08.988Z,13.27
2022-07-28T04:40:36.089Z,17.47
2022-07-28T04:43:03.983Z,9.87
2022-07-28T04:45:31.494Z,11.90
2022-07-28T04:47:58.705Z,12.40
2022-07-28T04:50:25.963Z,10.13
2022-07-28T04:52:53.147Z,11.57
2022-07-28T04:55:20.293Z,10.10
2022-07-28T04:57:48.172Z,10.93
2022-07-28T05:00:15.590Z,8.30
2022-07-28T05:02:44.246Z,11.27
2022-07-28T05:05:12.309Z,12.23
2022-07-28T05:07:40.127Z,11.50
2022-07-28T05:10:08.407Z,11.40
2022-07-28T05:12:35.870Z,10.40
2022-07-28T05:15:03.009Z,10.97
2022-07-28T05:17:30.171Z,8.67
2022-07-28T05:19:57.496Z,10.57
2022-07-28T05:22:24.693Z,11.53
2022-07-28T05:24:51.808Z,13.73
2022-07-28T05:27:18.926Z,9.90
2022-07-28T05:29:47.614Z,13.77
2022-07-28T05:32:16.318Z,12.60
2022-07-28T05:34:44.033Z,11.53
2022-07-28T05:37:11.178Z,11.67
2022-07-28T05:39:38.333Z,11.73
2022-07-28T05:42:05.607Z,9.93
2022-07-28T05:44:37.817Z,13.50
2022-07-28T05:47:05.470Z,11.70
2022-07-28T05:49:32.670Z,10.60
2022-07-28T05:51:59.799Z,10.23
2022-07-28T05:54:26.967Z,10.30
2022-07-28T05:56:54.104Z,9.67
2022-07-28T05:59:21.350Z,12.23
2022-07-28T06:01:48.575Z,13.77
2022-07-28T06:04:31.525Z,9.67
2022-07-28T06:06:58.919Z,11.87
2022-07-28T06:09:26.060Z,12.07
2022-07-28T06:11:53.219Z,12.27
2022-07-28T06:14:20.371Z,9.80
2022-07-28T06:16:51.464Z,12.27
2022-07-28T06:19:19.105Z,11.33
2022-07-28T06:21:47.541Z,10.00
2022-07-28T06:24:15.147Z,9.77
2022-07-28T06:26:45.003Z,7.90
2022-07-28T06:29:12.595Z,9.50
2022-07-28T06:31:40.005Z,6.13
2022-07-28T06:34:07.480Z,7.13
2022-07-28T06:36:34.617Z,7.57
2022-07-28T06:39:02.237Z,8.73
2022-07-28T06:41:29.386Z,7.20
2022-07-28T06:43:56.503Z,6.33
2022-07-28T06:46:23.716Z,7.03
2022-07-28T06:48:51.044Z,7.20
2022-07-28T06:51:19.919Z,8.43
2022-07-28T06:53:48.551Z,8.93
2022-07-28T06:56:16.164Z,5.23
2022-07-28T06:58:46.943Z,8.80
2022-07-28T07:01:15.190Z,7.20
2022-07-28T07:03:42.885Z,6.07
2022-07-28T07:06:10.927Z,5.40
2022-07-28T07:08:38.430Z,8.63
2022-07-28T07:11:05.639Z,6.63
2022-07-28T07:13:33.090Z,7.37
2022-07-28T07:16:00.525Z,8.30
2022-07-28T07:18:27.792Z,8.57
2022-07-28T07:20:54.973Z,6.60
2022-07-28T07:23:22.136Z,7.07
2022-07-28T07:25:49.362Z,7.23
2022-07-28T07:28:16.493Z,7.30
2022-07-28T07:30:43.912Z,7.47
2022-07-28T07:33:11.090Z,8.10
2022-07-28T07:35:38.563Z,8.57
2022-07-28T07:38:05.920Z,7.13
2022-07-28T07:40:33.069Z,7.80
2022-07-28T07:43:00.248Z,12.03
2022-07-28T07:45:27.521Z,7.53
2022-07-28T07:47:54.684Z,8.13
2022-07-28T07:50:21.890Z,8.47
2022-07-28T07:52:52.045Z,7.70
2022-07-28T07:55:19.272Z,10.93
2022-07-28T07:57:46.412Z,6.87
2022-07-28T08:00:28.139Z,6.93
2022-07-28T08:02:56.558Z,7.33
2022-07-28T08:05:35.057Z,7.87
2022-07-28T08:08:03.736Z,11.40
2022-07-28T08:10:30.994Z,6.60
2022-07-28T08:12:58.206Z,7.33
2022-07-28T08:15:25.560Z,7.23
2022-07-28T08:17:52.681Z,9.50
2022-07-28T08:20:20.188Z,10.67
2022-07-28T08:22:48.521Z,10.30
2022-07-28T08:25:15.775Z,9.43
2022-07-28T08:27:42.961Z,10.67
2022-07-28T08:30:10.657Z,8.20
2022-07-28T08:32:37.839Z,8.97
2022-07-28T08:35:31.497Z,10.30
2022-07-28T08:37:52.757Z,12.17
2022-07-28T08:40:22.418Z,9.13
2022-07-28T08:42:57.911Z,10.67
2022-07-28T08:45:26.021Z,12.67
2022-07-28T08:48:08.319Z,10.07
2022-07-28T08:50:37.298Z,10.63
2022-07-28T08:53:05.478Z,9.33
2022-07-28T08:55:32.847Z,8.50
2022-07-28T08:58:00.552Z,13.03
2022-07-28T09:00:27.951Z,9.97
2022-07-28T09:02:55.754Z,11.83
2022-07-28T09:05:23.847Z,11.93
2022-07-28T09:07:54.689Z,7.87
2022-07-28T09:10:22.626Z,10.53
2022-07-28T09:12:49.868Z,8.30
2022-07-28T09:15:17.026Z,11.80
2022-07-28T09:17:44.221Z,11.80
2022-07-28T09:20:11.897Z,7.83
2022-07-28T09:22:56.261Z,8.33
2022-07-28T09:25:23.608Z,10.83
2022-07-28T09:27:51.868Z,8.10
2022-07-28T09:30:28.917Z,9.03
2022-07-28T09:33:12.138Z,12.97
2022-07-28T09:35:59.903Z,10.80
2022-07-28T09:38:40.171Z,8.70
2022-07-28T09:41:07.517Z,10.67
2022-07-28T09:43:38.338Z,8.33
2022-07-28T09:46:06.694Z,8.07
2022-07-28T09:48:34.326Z,8.60
2022-07-28T09:51:13.041Z,9.23
2022-07-28T09:53:40.543Z,10.10
2022-07-28T09:56:07.941Z,11.75
2022-07-28T09:58:35.282Z,9.55
2022-07-28T10:01:03.393Z,7.70
2022-07-28T10:03:30.986Z,10.15
2022-07-28T10:05:59.220Z,9.80
2022-07-28T10:08:44.788Z,11.25
2022-07-28T10:11:12.921Z,8.52
2022-07-28T10:13:52.209Z,9.02
2022-07-28T10:16:20.722Z,10.85
2022-07-28T10:18:48.588Z,9.38
2022-07-28T10:21:17.072Z,9.75
2022-07-28T10:23:48.756Z,8.38
2022-07-28T10:26:16.531Z,9.90
2022-07-28T10:28:51.849Z,11.27
2022-07-28T10:31:23.881Z,7.55
2022-07-28T10:33:51.927Z,7.78
2022-07-28T10:36:23.296Z,7.43
2022-07-28T10:38:50.946Z,10.77
2022-07-28T10:41:19.493Z,10.85
2022-07-28T10:43:47.332Z,10.27
2022-07-28T10:46:17.002Z,9.52
2022-07-28T10:48:45.146Z,9.07
2022-07-28T10:51:13.801Z,9.57
2022-07-28T10:53:47.570Z,8.75
2022-07-28T10:56:20.157Z,11.65
2022-07-28T10:59:00.206Z,8.32
2022-07-28T11:01:53.829Z,8.88
2022-07-28T11:04:39.807Z,7.90
2022-07-28T11:07:11.035Z,9.20
2022-07-28T11:09:38.356Z,8.85
2022-07-28T11:12:06.217Z,8.45
2022-07-28T11:14:39.187Z,10.65
2022-07-28T11:17:10.087Z,9.60
2022-07-28T11:22:34.865Z,10.88
2022-07-28T11:25:18.521Z,7.85
2022-07-28T11:27:52.232Z,7.78
2022-07-28T11:30:21.245Z,11.95
2022-07-28T11:32:51.510Z,8.80
2022-07-28T11:35:19.537Z,11.82
2022-07-28T11:38:01.851Z,8.90
2022-07-28T11:40:42.681Z,10.65
2022-07-28T11:43:24.227Z,9.15
2022-07-28T11:46:05.302Z,9.70
2022-07-28T11:48:38.065Z,7.97
2022-07-28T11:51:05.311Z,8.35
2022-07-28T11:53:52.487Z,8.23
2022-07-28T11:56:22.641Z,8.27
2022-07-28T11:58:57.725Z,8.57
2022-07-28T12:01:24.876Z,9.48
2022-07-28T12:03:55.386Z,8.68
2022-07-28T12:06:26.315Z,9.70
2022-07-28T12:09:00.865Z,9.88
2022-07-28T12:11:28.424Z,9.73
2022-07-28T12:14:07.431Z,9.05
2022-07-28T12:16:36.018Z,8.90
2022-07-28T12:19:03.849Z,9.18
2022-07-28T12:21:46.508Z,9.07
2022-07-28T12:24:21.085Z,8.82
2022-07-28T12:26:50.734Z,8.55
2022-07-28T12:29:20.585Z,8.05
2022-07-28T12:31:52.973Z,7.78
2022-07-28T12:34:21.374Z,9.32
2022-07-28T12:36:51.958Z,9.25
2022-07-28T12:39:22.624Z,8.93
2022-07-28T12:41:49.858Z,8.43
2022-07-28T12:44:17.527Z,8.85
2022-07-28T12:46:48.913Z,9.57
2022-07-28T12:49:22.829Z,11.82
2022-07-28T12:51:50.065Z,8.63
2022-07-28T12:54:17.813Z,7.30
2022-07-28T12:56:46.525Z,8.70
2022-07-28T12:59:13.775Z,8.00
2022-07-28T13:01:46.688Z,8.02
2022-07-28T13:04:14.029Z,8.45
2022-07-28T13:06:42.007Z,7.05
2022-07-28T13:09:14.927Z,8.13
2022-07-28T13:11:46.098Z,7.93
2022-07-28T13:14:15.136Z,8.73
2022-07-28T13:16:42.599Z,8.48
2022-07-28T13:19:21.123Z,8.90
2022-07-28T13:21:57.234Z,9.23
2022-07-28T13:24:26.304Z,11.85
2022-07-28T13:26:53.499Z,8.73
2022-07-28T13:29:20.735Z,7.25
2022-07-28T13:31:47.919Z,8.63
2022-07-28T13:34:15.642Z,7.35
2022-07-28T13:36:43.147Z,8.77
2022-07-28T13:39:14.175Z,7.80
2022-07-28T13:41:48.531Z,8.02
2022-07-28T13:44:25.243Z,7.10
2022-07-28T13:46:53.167Z,8.68
2022-07-28T13:49:22.836Z,8.30
2022-07-28T13:51:51.168Z,8.10
2022-07-28T13:54:19.464Z,8.52
2022-07-28T13:56:47.242Z,9.90
2022-07-28T13:59:14.389Z,8.50
2022-07-28T14:01:42.456Z,8.32
2022-07-28T14:04:14.662Z,11.05
2022-07-28T14:06:45.148Z,8.00
2022-07-28T14:09:12.983Z,9.07
2022-07-28T14:11:49.428Z,7.93
2022-07-28T14:14:20.509Z,7.70
2022-07-28T14:16:51.699Z,9.13
2022-07-28T14:19:23.599Z,6.70
2022-07-28T14:22:12.243Z,10.23
2022-07-28T14:24:40.352Z,7.43
2022-07-28T14:27:07.502Z,7.97
2022-07-28T14:29:34.671Z,9.30
2022-07-28T14:32:01.817Z,9.77
2022-07-28T14:34:28.952Z,9.18
2022-07-28T14:36:56.443Z,9.57
2022-07-28T14:39:23.646Z,8.88
2022-07-28T14:41:51.058Z,7.75
2022-07-28T14:44:24.626Z,8.30
2022-07-28T14:46:52.360Z,9.00
2022-07-28T14:49:19.567Z,8.13
2022-07-28T14:51:46.801Z,8.15
2022-07-28T14:54:14.368Z,10.27
2022-07-28T14:56:41.763Z,9.95
2022-07-28T14:59:09.044Z,8.45
2022-07-28T15:01:36.523Z,10.32
2022-07-28T15:04:04.156Z,7.10
2022-07-28T15:06:31.381Z,8.93
2022-07-28T15:08:58.600Z,8.38
2022-07-28T15:11:25.830Z,12.82
2022-07-28T15:13:52.988Z,10.07
2022-07-28T15:16:20.152Z,19.50
2022-07-28T15:18:47.391Z,13.23
2022-07-28T15:21:15.891Z,12.73
2022-07-28T15:23:43.033Z,11.30
2022-07-28T15:26:10.614Z,11.15
2022-07-28T15:28:37.964Z,8.77
2022-07-28T15:31:05.416Z,8.18
2022-07-28T15:33:48.103Z,6.97
2022-07-28T15:36:15.969Z,10.57
2022-07-28T15:38:47.118Z,8.48
2022-07-28T15:41:15.115Z,8.10
2022-07-28T15:43:42.620Z,9.15
2022-07-28T15:46:11.730Z,8.95
2022-07-28T15:48:39.573Z,9.15
2022-07-28T15:51:07.273Z,7.43
2022-07-28T15:53:34.861Z,9.05
2022-07-28T15:56:02.067Z,9.75
2022-07-28T15:58:29.223Z,7.82
2022-07-28T16:00:56.442Z,8.98
2022-07-28T16:03:28.204Z,13.88
2022-07-28T16:05:55.478Z,10.20
2022-07-28T16:08:23.289Z,8.73
2022-07-28T16:10:51.529Z,8.50
2022-07-28T16:13:31.402Z,8.10
2022-07-28T16:16:07.541Z,9.52
2022-07-28T16:18:36.432Z,6.93
2022-07-28T16:21:03.659Z,6.78
2022-07-28T16:23:30.886Z,7.63
2022-07-28T16:25:58.269Z,6.18
2022-07-28T16:28:26.533Z,8.10
2022-07-28T16:30:54.247Z,9.32
2022-07-28T16:33:21.468Z,7.65
2022-07-28T16:35:48.647Z,7.30
2022-07-28T16:38:15.973Z,7.90
2022-07-28T16:40:43.135Z,7.63
2022-07-28T16:43:10.328Z,6.88
2022-07-28T16:45:37.561Z,6.72
2022-07-28T16:48:04.720Z,5.85
2022-07-28T16:50:32.689Z,7.45
2022-07-28T16:53:00.164Z,5.85
2022-07-28T16:55:27.576Z,6.30
2022-07-28T16:57:56.331Z,5.47
2022-07-28T17:00:25.989Z,7.03
2022-07-28T17:02:53.475Z,6.20
2022-07-28T17:05:20.739Z,6.43
2022-07-28T17:07:47.942Z,5.97
2022-07-28T17:10:20.474Z,6.65
2022-07-28T17:12:50.258Z,5.75
2022-07-28T17:15:19.783Z,6.03
2022-07-28T17:17:50.338Z,5.70
2022-07-28T17:20:17.705Z,5.20
2022-07-28T17:22:45.160Z,5.88
2022-07-28T17:27:59.925Z,4.97
2022-07-28T17:30:29.927Z,6.68
2022-07-28T17:33:03.526Z,7.13
2022-07-28T17:35:35.479Z,5.78
2022-07-28T17:38:03.314Z,6.25
2022-07-28T17:40:30.502Z,5.80
2022-07-28T17:42:57.798Z,6.15
2022-07-28T17:45:24.993Z,5.30
2022-07-28T17:47:52.311Z,5.65
2022-07-28T17:50:19.492Z,6.80
2022-07-28T17:52:46.824Z,6.47
2022-07-28T17:55:55.949Z,6.93
2022-07-28T17:58:27.936Z,5.50
2022-07-28T18:00:57.991Z,6.20
2022-07-28T18:03:28.150Z,6.35
2022-07-28T18:05:55.326Z,5.47
2022-07-28T18:08:23.877Z,7.30
2022-07-28T18:10:51.440Z,6.22
2022-07-28T18:13:18.693Z,5.28
2022-07-28T18:15:45.924Z,5.90
2022-07-28T18:18:13.441Z,8.00
2022-07-28T18:20:41.065Z,6.65
2022-07-28T18:23:09.101Z,5.35
2022-07-28T18:25:37.720Z,7.32
2022-07-28T18:28:07.384Z,7.40
2022-07-28T18:30:35.011Z,9.70
2022-07-28T18:33:02.527Z,5.40
2022-07-28T18:35:30.364Z,6.45
2022-07-28T18:37:58.116Z,5.15
2022-07-28T18:40:25.416Z,6.78
2022-07-28T18:42:52.854Z,6.72
2022-07-28T18:45:20.125Z,6.00
2022-07-28T18:47:47.824Z,5.57
2022-07-28T18:50:30.501Z,6.00
2022-07-28T18:52:58.522Z,6.95
2022-07-28T18:55:25.747Z,5.68
2022-07-28T18:57:52.911Z,7.13
2022-07-28T19:00:20.281Z,6.10
2022-07-28T19:02:47.491Z,6.20
2022-07-28T19:05:14.684Z,5.13
2022-07-28T19:07:41.843Z,6.50
2022-07-28T19:10:09.715Z,5.55
2022-07-28T19:12:36.941Z,4.53
2022-07-28T19:15:04.247Z,3.55
2022-07-28T19:17:31.465Z,4.07
2022-07-28T19:19:59.599Z,4.60
2022-07-28T19:22:26.842Z,4.70
2022-07-28T19:24:54.115Z,5.83
2022-07-28T19:27:21.417Z,5.33
2022-07-28T19:29:48.639Z,6.00
2022-07-28T19:32:17.653Z,6.13
2022-07-28T19:34:47.565Z,4.60
2022-07-28T19:37:16.820Z,5.83
2022-07-28T19:39:46.001Z,6.40
2022-07-28T19:42:13.220Z,7.13
2022-07-28T19:44:41.333Z,6.57
2022-07-28T19:47:08.812Z,5.80
2022-07-28T19:49:36.032Z,7.27
2022-07-28T19:52:03.183Z,5.63
2022-07-28T19:54:30.344Z,6.97
2022-07-28T19:56:57.636Z,6.90
2022-07-28T19:59:25.224Z,9.17
2022-07-28T20:01:52.430Z,8.13
2022-07-28T20:04:23.237Z,6.13
2022-07-28T20:06:55.545Z,6.60
2022-07-28T20:09:22.970Z,7.97
2022-07-28T20:11:50.551Z,6.87
2022-07-28T20:14:18.013Z,9.77
2022-07-28T20:16:46.563Z,7.73
2022-07-28T20:19:14.012Z,6.67
2022-07-28T20:21:41.249Z,7.90
2022-07-28T20:24:08.575Z,8.40
2022-07-28T20:26:35.725Z,7.87
2022-07-28T20:29:04.988Z,9.03
2022-07-28T20:31:32.761Z,9.93
2022-07-28T20:33:59.950Z,7.27
2022-07-28T20:36:29.897Z,9.50
2022-07-28T20:38:57.340Z,7.77
2022-07-28T20:41:24.641Z,9.57
2022-07-28T20:44:18.324Z,7.17
2022-07-28T20:46:38.924Z,7.27
2022-07-28T20:49:06.133Z,8.87
2022-07-28T20:51:33.293Z,9.50
2022-07-28T20:54:00.459Z,9.37
2022-07-28T20:56:27.612Z,8.37
2022-07-28T20:58:54.852Z,10.83
2022-07-28T21:01:23.443Z,7.97
2022-07-28T21:03:51.674Z,7.47
2022-07-28T21:06:18.861Z,9.00
2022-07-28T21:08:47.630Z,8.93
2022-07-28T21:11:14.796Z,9.97
2022-07-28T21:13:41.912Z,10.10
2022-07-28T21:16:09.074Z,9.63
2022-07-28T21:18:39.499Z,7.93
2022-07-28T21:21:06.654Z,9.30
2022-07-28T21:23:33.759Z,8.80
2022-07-28T21:26:00.872Z,7.47
2022-07-28T21:28:46.902Z,6.93
2022-07-28T21:31:14.035Z,8.00
2022-07-28T21:33:41.188Z,7.33
2022-07-28T21:36:08.550Z,9.87
2022-07-28T21:38:35.693Z,9.37
2022-07-28T21:41:02.810Z,7.77
2022-07-28T21:43:30.058Z,8.67
2022-07-28T21:45:57.631Z,9.80
2022-07-28T21:48:25.023Z,8.20
2022-07-28T21:50:52.804Z,7.67
2022-07-28T21:53:20.356Z,9.83
2022-07-28T21:55:48.270Z,8.17
2022-07-28T21:58:16.082Z,9.00
2022-07-28T22:00:43.619Z,9.60
2022-07-28T22:03:11.230Z,7.77
2022-07-28T22:05:38.486Z,7.87
2022-07-28T22:08:05.733Z,7.70
2022-07-28T22:10:32.948Z,6.67
2022-07-28T22:13:00.204Z,7.47
2022-07-28T22:15:27.438Z,9.03
2022-07-28T22:17:54.581Z,8.23
2022-07-28T22:20:21.866Z,7.50
2022-07-28T22:22:49.038Z,7.83
2022-07-28T22:25:16.166Z,6.73
2022-07-28T22:27:43.317Z,9.17
2022-07-28T22:30:10.613Z,9.33
2022-07-28T22:32:37.903Z,7.17
2022-07-28T22:35:05.192Z,7.27
2022-07-28T22:37:32.322Z,10.83
2022-07-28T22:39:59.454Z,7.23
2022-07-28T22:42:26.601Z,8.17
2022-07-28T22:44:53.819Z,7.50
2022-07-28T22:47:21.011Z,7.33
2022-07-28T22:49:48.349Z,8.73
2022-07-28T22:52:15.506Z,8.50
2022-07-28T22:57:27.963Z,8.60
2022-07-28T22:59:56.327Z,10.67
2022-07-28T23:02:25.895Z,8.13
2022-07-28T23:04:53.518Z,11.63
2022-07-28T23:07:20.702Z,7.67
2022-07-28T23:10:08.852Z,11.03
2022-07-28T23:12:36.025Z,9.80
2022-07-28T23:15:03.241Z,9.37
2022-07-28T23:17:30.366Z,7.90
2022-07-28T23:19:58.710Z,9.10
2022-07-28T23:22:25.840Z,8.33
2022-07-28T23:24:53.053Z,8.93
2022-07-28T23:27:20.296Z,9.37
2022-07-28T23:29:48.098Z,10.77
2022-07-28T23:32:17.141Z,7.27
2022-07-28T23:34:44.470Z,9.77
2022-07-28T23:37:11.820Z,8.30
2022-07-28T23:39:39.040Z,8.27
2022-07-28T23:42:06.432Z,9.87
2022-07-28T23:44:33.616Z,10.73
2022-07-28T23:47:00.877Z,9.60
2022-07-28T23:49:28.148Z,12.47
2022-07-28T23:51:55.353Z,8.93
2022-07-28T23:54:22.543Z,7.73
2022-07-28T23:56:51.799Z,9.50
2022-07-28T23:59:19.046Z,9.73
